Time;durP1;ratioP1;P1;durP2;ratioP2;P2;SDS_P1;SDS_P2;PMS_P1;PMS_P2;Temp;Humidity;BMP_temperature;BMP_pressure;BME280_temperature;BME280_humidity;BME280_pressure;Samples;Min_cycle;Max_cycle;Signal;HPM_P1;HPM_P2
2021/10/21 00:01:49;;;;;;;23.00;4.47;;;12.80;99.90;;;;;;4974816;28;20059;-77
2021/10/21 00:04:16;;;;;;;25.77;3.92;;;12.80;99.90;;;;;;4973601;28;20055;-76
2021/10/21 00:06:42;;;;;;;26.45;4.60;;;12.80;99.90;;;;;;4974701;28;20073;-76
2021/10/21 00:09:09;;;;;;;21.90;4.72;;;12.80;99.90;;;;;;4975005;28;20054;-76
2021/10/21 00:11:35;;;;;;;32.83;5.45;;;12.80;99.90;;;;;;4972936;28;20058;-78
2021/10/21 00:14:02;;;;;;;19.95;3.78;;;12.90;99.90;;;;;;4973003;28;20046;-75
2021/10/21 00:16:29;;;;;;;24.45;4.70;;;12.90;99.90;;;;;;4974626;28;20055;-75
2021/10/21 00:18:55;;;;;;;20.48;4.07;;;12.90;99.90;;;;;;4975115;28;20070;-76
2021/10/21 00:21:21;;;;;;;27.73;4.95;;;12.80;99.90;;;;;;4973562;28;20354;-76
2021/10/21 00:23:48;;;;;;;23.92;3.78;;;12.90;99.90;;;;;;4974459;28;20047;-75
2021/10/21 00:26:14;;;;;;;23.63;4.55;;;12.80;99.90;;;;;;4974336;28;20051;-76
2021/10/21 00:28:40;;;;;;;19.38;3.95;;;12.80;99.90;;;;;;4974260;28;20078;-77
2021/10/21 00:31:07;;;;;;;19.30;3.53;;;12.90;99.90;;;;;;4973810;28;20062;-76
2021/10/21 00:33:33;;;;;;;16.05;3.17;;;12.80;99.90;;;;;;4974757;28;20062;-76
2021/10/21 00:35:59;;;;;;;19.52;4.50;;;12.80;99.90;;;;;;4973417;28;20352;-75
2021/10/21 00:38:25;;;;;;;26.20;5.15;;;12.80;99.90;;;;;;4978903;28;20369;-75
2021/10/21 00:40:52;;;;;;;18.75;4.35;;;12.90;99.90;;;;;;4977908;28;20444;-76
2021/10/21 00:43:18;;;;;;;18.17;3.97;;;12.80;99.90;;;;;;4978593;28;20062;-75
2021/10/21 00:45:44;;;;;;;21.67;5.13;;;12.80;99.90;;;;;;4978243;28;20059;-76
2021/10/21 00:48:10;;;;;;;16.98;3.58;;;12.80;99.90;;;;;;4976938;28;20050;-75
2021/10/21 00:50:39;;;;;;;22.08;3.70;;;12.80;99.90;;;;;;4977687;28;20046;-75
2021/10/21 00:53:09;;;;;;;21.02;4.22;;;12.80;99.90;;;;;;4977797;28;20429;-75
2021/10/21 00:55:35;;;;;;;21.35;3.88;;;12.80;99.90;;;;;;4977739;28;20062;-75
2021/10/21 00:58:04;;;;;;;27.20;4.45;;;12.80;99.90;;;;;;4976744;28;20282;-74
2021/10/21 01:00:31;;;;;;;17.35;3.75;;;12.80;99.90;;;;;;4976728;28;20314;-75
2021/10/21 01:02:58;;;;;;;17.90;4.25;;;12.80;99.90;;;;;;4976287;28;20078;-74
2021/10/21 01:05:24;;;;;;;28.08;4.60;;;12.90;99.90;;;;;;4976876;28;20078;-74
2021/10/21 01:07:51;;;;;;;13.93;3.55;;;12.80;99.90;;;;;;4976318;28;20065;-74
2021/10/21 01:10:17;;;;;;;21.55;3.83;;;12.80;99.90;;;;;;4977446;28;20369;-74
2021/10/21 01:12:43;;;;;;;20.00;4.18;;;12.70;99.90;;;;;;4977435;28;20057;-74
2021/10/21 01:15:18;;;;;;;21.70;4.68;;;12.80;99.90;;;;;;4976285;28;20073;-74
2021/10/21 01:17:46;;;;;;;17.73;4.28;;;12.80;99.90;;;;;;4977205;28;20058;-75
2021/10/21 01:20:13;;;;;;;10.85;3.60;;;12.80;99.90;;;;;;4976013;28;20055;-76
2021/10/21 01:22:41;;;;;;;25.08;4.40;;;12.80;99.90;;;;;;4977122;28;20061;-76
2021/10/21 01:25:08;;;;;;;25.08;5.20;;;12.70;99.90;;;;;;4977174;28;20097;-76
2021/10/21 01:27:34;;;;;;;21.15;5.03;;;12.70;99.90;;;;;;4977221;28;20057;-76
2021/10/21 01:30:00;;;;;;;15.18;3.67;;;12.80;99.90;;;;;;4977188;28;20445;-76
2021/10/21 01:32:28;;;;;;;30.08;5.75;;;12.70;99.90;;;;;;4977479;28;20061;-76
2021/10/21 01:34:54;;;;;;;20.98;4.30;;;12.70;99.90;;;;;;4975930;28;20058;-76
2021/10/21 01:37:20;;;;;;;22.40;5.15;;;12.70;99.90;;;;;;4976393;28;20054;-76
2021/10/21 01:39:46;;;;;;;27.98;6.05;;;12.70;99.90;;;;;;4976107;28;20349;-75
2021/10/21 01:42:12;;;;;;;23.38;6.80;;;12.80;99.90;;;;;;4977208;28;20050;-76
2021/10/21 01:44:41;;;;;;;18.77;5.28;;;12.70;99.90;;;;;;4977370;28;20047;-76
2021/10/21 01:47:07;;;;;;;21.80;6.80;;;12.70;99.90;;;;;;4977085;28;20069;-75
2021/10/21 01:49:33;;;;;;;16.52;6.47;;;12.60;99.90;;;;;;4976074;28;20059;-74
2021/10/21 01:51:59;;;;;;;15.77;5.30;;;12.70;99.90;;;;;;4975820;28;20055;-76
2021/10/21 01:54:25;;;;;;;27.38;8.15;;;12.70;99.90;;;;;;4975784;28;20054;-76
2021/10/21 01:56:52;;;;;;;19.85;7.93;;;12.70;99.90;;;;;;4976407;28;20062;-77
2021/10/21 01:59:19;;;;;;;18.27;7.30;;;12.70;99.90;;;;;;4975994;28;20333;-77
2021/10/21 02:01:45;;;;;;;16.98;7.47;;;12.70;99.90;;;;;;4975872;28;20043;-77
2021/10/21 02:04:11;;;;;;;24.73;8.20;;;12.70;99.90;;;;;;4976745;28;20050;-77
2021/10/21 02:06:37;;;;;;;21.75;7.53;;;12.70;99.90;;;;;;4976726;28;20051;-76
2021/10/21 02:09:03;;;;;;;13.10;5.72;;;12.70;99.90;;;;;;4976667;28;20053;-76
2021/10/21 02:11:29;;;;;;;15.30;5.80;;;12.70;99.90;;;;;;4977005;28;20050;-76
2021/10/21 02:13:55;;;;;;;18.98;5.60;;;12.70;99.90;;;;;;4976001;28;20054;-76
2021/10/21 02:16:22;;;;;;;17.38;5.25;;;12.70;99.90;;;;;;4977569;28;20065;-76
2021/10/21 02:18:48;;;;;;;12.65;4.88;;;12.70;99.90;;;;;;4976651;28;20050;-76
2021/10/21 02:21:14;;;;;;;13.25;4.30;;;12.70;99.90;;;;;;4976800;28;20057;-76
2021/10/21 02:23:40;;;;;;;21.70;4.47;;;12.70;99.90;;;;;;4976572;28;20054;-77
2021/10/21 02:26:06;;;;;;;15.00;4.05;;;12.70;99.90;;;;;;4976746;28;20055;-76
2021/10/21 02:28:33;;;;;;;38.88;4.57;;;12.70;99.90;;;;;;4976254;28;20617;-76
2021/10/21 02:30:59;;;;;;;12.60;3.60;;;12.60;99.90;;;;;;4976404;28;20057;-77
2021/10/21 02:33:25;;;;;;;12.50;3.33;;;12.60;99.90;;;;;;4976817;28;20353;-76
2021/10/21 02:35:51;;;;;;;14.95;4.05;;;12.50;99.90;;;;;;4976534;28;20054;-77
2021/10/21 02:38:18;;;;;;;13.55;3.65;;;12.50;99.90;;;;;;4976821;28;20058;-76
2021/10/21 02:40:44;;;;;;;33.20;5.25;;;12.40;99.90;;;;;;4975169;28;20074;-77
2021/10/21 02:43:12;;;;;;;17.08;3.60;;;12.40;99.90;;;;;;4976314;28;20046;-77
2021/10/21 02:45:40;;;;;;;16.05;4.25;;;12.30;99.90;;;;;;4975163;28;20055;-77
2021/10/21 02:48:06;;;;;;;8.85;2.40;;;12.30;99.90;;;;;;4976506;28;20055;-77
2021/10/21 02:50:34;;;;;;;17.02;3.50;;;12.20;99.90;;;;;;4976544;28;20839;-78
2021/10/21 02:53:00;;;;;;;36.13;3.90;;;12.10;99.90;;;;;;4975574;28;20050;-77
2021/10/21 02:55:26;;;;;;;8.80;1.95;;;12.10;99.90;;;;;;4974915;28;20051;-76
2021/10/21 02:57:52;;;;;;;9.90;1.92;;;12.00;99.90;;;;;;4976507;28;20457;-76
2021/10/21 03:00:18;;;;;;;10.23;2.45;;;12.00;99.90;;;;;;4974544;28;20046;-76
2021/10/21 03:02:45;;;;;;;9.48;2.22;;;12.00;99.90;;;;;;4976056;28;20058;-76
2021/10/21 03:05:11;;;;;;;9.35;1.50;;;11.90;99.90;;;;;;4974559;28;20047;-77
2021/10/21 03:07:37;;;;;;;6.78;1.58;;;11.90;99.90;;;;;;4974297;28;20047;-76
2021/10/21 03:10:04;;;;;;;2.97;0.93;;;11.90;99.90;;;;;;4975309;28;20059;-75
2021/10/21 03:12:30;;;;;;;6.95;1.15;;;11.90;99.90;;;;;;4975178;28;20409;-76
2021/10/21 03:14:56;;;;;;;4.28;1.10;;;11.90;99.90;;;;;;4974617;28;20449;-77
2021/10/21 03:17:22;;;;;;;7.55;1.30;;;11.90;99.90;;;;;;4976028;28;20054;-77
2021/10/21 03:19:49;;;;;;;6.55;1.17;;;11.90;99.90;;;;;;4958570;28;20046;-76
2021/10/21 03:22:15;;;;;;;7.85;1.38;;;11.90;99.90;;;;;;4974664;28;20093;-77
2021/10/21 03:24:41;;;;;;;6.85;1.02;;;11.80;99.90;;;;;;4975566;28;20456;-77
2021/10/21 03:27:08;;;;;;;4.38;1.10;;;11.90;99.90;;;;;;4975634;28;20730;-77
2021/10/21 03:29:35;;;;;;;11.05;1.83;;;11.80;99.90;;;;;;4975895;28;20046;-77
2021/10/21 03:32:01;;;;;;;8.77;1.50;;;11.80;99.90;;;;;;4975349;28;20069;-76
2021/10/21 03:34:27;;;;;;;4.97;1.00;;;11.80;99.90;;;;;;4975779;28;20047;-77
2021/10/21 03:36:53;;;;;;;8.48;1.70;;;11.80;99.90;;;;;;4974174;28;20054;-77
2021/10/21 03:39:19;;;;;;;6.30;0.98;;;11.80;99.90;;;;;;4974242;28;20077;-76
2021/10/21 03:41:46;;;;;;;4.07;1.13;;;11.60;99.90;;;;;;4975101;28;20326;-77
2021/10/21 03:44:12;;;;;;;8.45;1.00;;;11.50;99.90;;;;;;4973976;28;20054;-76
2021/10/21 03:46:39;;;;;;;7.43;1.25;;;11.60;99.90;;;;;;4973622;28;20058;-77
2021/10/21 03:49:06;;;;;;;7.45;0.93;;;11.50;99.90;;;;;;4974348;28;20063;-76
2021/10/21 03:51:33;;;;;;;5.18;1.00;;;11.50;99.90;;;;;;4974932;28;20447;-77
2021/10/21 03:53:59;;;;;;;6.50;1.05;;;11.40;99.90;;;;;;4973709;28;20058;-77
2021/10/21 03:56:25;;;;;;;4.97;1.13;;;11.40;99.90;;;;;;4973755;28;20050;-77
2021/10/21 03:58:51;;;;;;;4.47;1.30;;;11.30;99.90;;;;;;4975065;28;20054;-77
2021/10/21 04:01:18;;;;;;;8.55;1.52;;;11.30;99.90;;;;;;4974961;28;20053;-76
2021/10/21 04:03:44;;;;;;;6.07;1.58;;;11.30;99.90;;;;;;4973748;28;20059;-77
2021/10/21 04:06:10;;;;;;;5.15;1.00;;;11.20;99.90;;;;;;4973809;28;20058;-77
2021/10/21 04:08:36;;;;;;;6.40;1.10;;;11.20;99.90;;;;;;4973404;28;20341;-76
2021/10/21 04:11:02;;;;;;;6.40;0.98;;;11.20;99.90;;;;;;4973649;28;20130;-76
2021/10/21 04:13:28;;;;;;;3.42;0.93;;;11.20;99.90;;;;;;4973453;28;20050;-76
2021/10/21 04:15:54;;;;;;;10.88;1.30;;;11.10;99.90;;;;;;4974780;28;20062;-78
2021/10/21 04:18:20;;;;;;;5.85;1.15;;;11.20;99.90;;;;;;4974438;28;20051;-76
2021/10/21 04:20:48;;;;;;;7.63;1.08;;;11.10;99.90;;;;;;4973507;28;20058;-77
2021/10/21 04:23:14;;;;;;;5.32;1.13;;;11.10;99.90;;;;;;4974921;28;20062;-77
2021/10/21 04:25:41;;;;;;;5.03;0.82;;;11.00;99.90;;;;;;4974585;28;20051;-77
2021/10/21 04:28:07;;;;;;;6.22;1.00;;;11.10;99.90;;;;;;4973518;28;20042;-76
2021/10/21 04:30:33;;;;;;;8.02;1.42;;;11.10;99.90;;;;;;4972964;28;20448;-76
2021/10/21 04:32:59;;;;;;;5.68;0.90;;;11.00;99.90;;;;;;4973769;28;20054;-76
2021/10/21 04:35:25;;;;;;;7.43;1.17;;;11.00;99.90;;;;;;4974668;28;20046;-76
2021/10/21 04:37:51;;;;;;;6.82;1.08;;;11.00;99.90;;;;;;4973345;28;20109;-76
2021/10/21 04:40:18;;;;;;;6.80;1.27;;;10.90;99.90;;;;;;4974349;28;20421;-77
2021/10/21 04:42:44;;;;;;;3.22;0.77;;;11.00;99.90;;;;;;4974378;28;20050;-77
2021/10/21 04:45:10;;;;;;;4.35;1.33;;;11.00;99.90;;;;;;4973295;28;20051;-77
2021/10/21 04:47:36;;;;;;;5.32;1.50;;;11.00;99.90;;;;;;4957320;28;20050;-77
2021/10/21 04:50:04;;;;;;;9.77;1.63;;;11.00;99.90;;;;;;4973078;28;20070;-77
2021/10/21 04:52:30;;;;;;;12.05;2.05;;;11.20;99.90;;;;;;4957206;28;20077;-76
2021/10/21 04:54:56;;;;;;;4.65;1.40;;;11.20;99.90;;;;;;4974155;28;20054;-76
2021/10/21 04:57:23;;;;;;;4.45;1.23;;;11.50;99.90;;;;;;4974218;28;20053;-76
2021/10/21 04:59:49;;;;;;;8.35;1.25;;;11.30;99.90;;;;;;4974185;28;20054;-75
2021/10/21 05:02:15;;;;;;;7.03;1.17;;;11.10;99.90;;;;;;4972917;28;20070;-75
2021/10/21 05:04:41;;;;;;;6.97;1.17;;;11.00;99.90;;;;;;4973000;28;20070;-75
2021/10/21 05:07:07;;;;;;;5.82;1.00;;;11.20;99.90;;;;;;4972941;28;20054;-77
2021/10/21 05:09:33;;;;;;;8.35;1.45;;;11.00;99.90;;;;;;4973195;28;20046;-77
2021/10/21 05:11:59;;;;;;;8.70;1.25;;;11.00;99.90;;;;;;4974140;28;20445;-77
2021/10/21 05:14:26;;;;;;;5.00;1.17;;;10.90;99.90;;;;;;4973982;28;20070;-78
2021/10/21 05:16:52;;;;;;;8.85;1.55;;;10.90;99.90;;;;;;4974157;28;20130;-78
2021/10/21 05:19:18;;;;;;;6.15;0.95;;;11.00;99.90;;;;;;4972355;28;20047;-77
2021/10/21 05:21:44;;;;;;;9.23;1.60;;;10.50;99.90;;;;;;4973664;28;20105;-79
2021/10/21 05:24:10;;;;;;;11.43;1.42;;;10.30;99.90;;;;;;4976124;28;20055;-76
2021/10/21 05:26:36;;;;;;;13.50;2.60;;;10.20;99.90;;;;;;4977714;28;20058;-78
2021/10/21 05:29:03;;;;;;;12.93;2.15;;;10.20;99.90;;;;;;4978604;28;20058;-79
2021/10/21 05:31:29;;;;;;;15.95;3.03;;;10.10;99.90;;;;;;4975512;28;20058;-77
2021/10/21 05:33:55;;;;;;;11.05;2.33;;;10.00;99.90;;;;;;4975260;28;20155;-79
2021/10/21 05:36:21;;;;;;;16.17;2.33;;;10.00;99.90;;;;;;4976482;28;20054;-76
2021/10/21 05:38:48;;;;;;;19.08;2.45;;;10.00;99.90;;;;;;4975275;28;20058;-78
2021/10/21 05:41:14;;;;;;;15.70;1.42;;;10.10;99.90;;;;;;4976299;28;20050;-78
2021/10/21 05:43:40;;;;;;;15.75;1.92;;;10.00;99.90;;;;;;4975545;28;20059;-76
2021/10/21 05:46:06;;;;;;;18.13;2.20;;;10.00;99.90;;;;;;4974824;28;20466;-77
2021/10/21 05:48:33;;;;;;;13.15;1.40;;;10.20;99.90;;;;;;4976359;28;20058;-78
2021/10/21 05:51:01;;;;;;;12.68;1.50;;;10.00;99.90;;;;;;4958659;28;20063;-78
2021/10/21 05:53:27;;;;;;;20.13;2.38;;;10.10;99.90;;;;;;4976857;28;20050;-79
2021/10/21 05:55:53;;;;;;;16.58;2.47;;;10.10;99.90;;;;;;4976642;28;20051;-76
2021/10/21 05:58:19;;;;;;;10.55;1.85;;;10.10;99.90;;;;;;4976220;28;20062;-77
2021/10/21 06:00:45;;;;;;;11.85;1.80;;;10.10;99.90;;;;;;4975653;28;20062;-77
2021/10/21 06:03:11;;;;;;;12.80;1.45;;;10.10;99.90;;;;;;4975052;28;20046;-77
2021/10/21 06:05:38;;;;;;;10.32;1.70;;;10.10;99.90;;;;;;4976034;28;20046;-76
2021/10/21 06:08:04;;;;;;;17.13;2.90;;;10.10;99.90;;;;;;4976020;28;20050;-79
2021/10/21 06:10:30;;;;;;;17.27;1.90;;;10.10;99.90;;;;;;4975304;28;20058;-77
2021/10/21 06:12:58;;;;;;;14.68;1.67;;;10.20;99.90;;;;;;4975005;28;20766;-78
2021/10/21 06:15:26;;;;;;;13.57;2.97;;;10.20;99.90;;;;;;4976496;28;20049;-78
2021/10/21 06:17:54;;;;;;;16.80;1.33;;;10.20;99.90;;;;;;4976543;28;20054;-77
2021/10/21 06:20:20;;;;;;;10.95;1.92;;;10.20;99.90;;;;;;4975559;28;20333;-76
2021/10/21 06:22:46;;;;;;;10.65;1.85;;;10.30;99.90;;;;;;4976675;28;20050;-78
2021/10/21 06:25:13;;;;;;;13.20;2.28;;;10.30;99.90;;;;;;4976736;28;20055;-77
2021/10/21 06:27:40;;;;;;;13.35;1.25;;;10.50;99.90;;;;;;4976505;28;20061;-78
2021/10/21 06:30:07;;;;;;;12.82;1.60;;;10.30;99.90;;;;;;4976709;28;20059;-79
2021/10/21 06:32:33;;;;;;;8.20;1.13;;;10.30;99.90;;;;;;4959132;28;20058;-78
2021/10/21 06:35:01;;;;;;;11.35;1.70;;;10.30;99.90;;;;;;4975977;28;20051;-78
2021/10/21 06:37:28;;;;;;;16.40;1.80;;;10.40;99.90;;;;;;4976656;28;20050;-79
2021/10/21 06:39:54;;;;;;;12.02;1.65;;;10.40;99.90;;;;;;4976628;28;20055;-79
2021/10/21 06:42:22;;;;;;;15.50;1.45;;;10.40;99.90;;;;;;4976273;28;20057;-77
2021/10/21 06:44:50;;;;;;;18.45;1.80;;;10.40;99.90;;;;;;4974368;28;20054;-79
2021/10/21 06:47:16;;;;;;;10.43;1.50;;;10.40;99.90;;;;;;4975697;28;20054;-78
2021/10/21 06:49:43;;;;;;;9.93;1.60;;;10.50;99.90;;;;;;4974514;28;20347;-79
2021/10/21 06:52:10;;;;;;;16.42;2.88;;;10.50;99.90;;;;;;4974505;28;20062;-79
2021/10/21 06:54:36;;;;;;;12.75;1.52;;;;;;;;;;4976398;28;20425;-79
2021/10/21 06:57:02;;;;;;;14.88;2.20;;;10.60;99.90;;;;;;4974772;28;20050;-77
2021/10/21 06:59:28;;;;;;;8.43;1.40;;;10.60;99.90;;;;;;4976427;28;20054;-77
2021/10/21 07:01:54;;;;;;;10.93;2.10;;;10.60;99.90;;;;;;4975375;28;20055;-77
2021/10/21 07:04:21;;;;;;;14.57;1.85;;;10.60;99.90;;;;;;4975830;28;20055;-78
2021/10/21 07:06:47;;;;;;;17.33;1.98;;;10.60;99.90;;;;;;4975407;28;20065;-79
2021/10/21 07:09:14;;;;;;;9.45;1.50;;;10.70;99.90;;;;;;4975536;28;20376;-79
2021/10/21 07:11:40;;;;;;;18.83;2.60;;;10.70;99.90;;;;;;4975357;28;20054;-78
2021/10/21 07:14:06;;;;;;;9.35;1.45;;;10.80;99.90;;;;;;4990235;28;20063;-79
2021/10/21 07:16:32;;;;;;;15.13;2.33;;;10.90;99.90;;;;;;4973204;28;20055;-79
2021/10/21 07:18:58;;;;;;;15.05;2.63;;;10.80;99.90;;;;;;4975513;28;20109;-78
2021/10/21 07:21:24;;;;;;;12.40;1.90;;;10.80;99.90;;;;;;4974055;28;20051;-78
2021/10/21 07:23:51;;;;;;;19.88;2.70;;;10.80;99.90;;;;;;4975745;28;20046;-78
2021/10/21 07:26:17;;;;;;;13.43;1.52;;;10.80;99.90;;;;;;4973844;28;20377;-77
2021/10/21 07:28:43;;;;;;;17.38;2.65;;;10.90;99.90;;;;;;4975148;28;20054;-79
2021/10/21 07:31:14;;;;;;;12.15;1.65;;;10.80;99.90;;;;;;4974963;28;20059;-78
2021/10/21 07:33:40;;;;;;;10.10;1.70;;;10.80;99.90;;;;;;4975068;28;20050;-79
2021/10/21 07:36:07;;;;;;;13.23;2.10;;;10.90;99.90;;;;;;4975121;28;20077;-78
2021/10/21 07:38:33;;;;;;;11.63;2.55;;;10.90;99.90;;;;;;4975018;28;20051;-77
2021/10/21 07:40:59;;;;;;;14.88;2.03;;;10.90;99.90;;;;;;4974901;28;20069;-77
2021/10/21 07:43:25;;;;;;;14.05;2.25;;;10.90;99.90;;;;;;4975059;28;20585;-73
2021/10/21 07:45:51;;;;;;;8.55;1.52;;;11.00;99.90;;;;;;4974004;28;20050;-76
2021/10/21 07:48:17;;;;;;;12.60;2.58;;;10.90;99.90;;;;;;4974009;28;20050;-76
2021/10/21 07:50:45;;;;;;;9.38;2.03;;;10.90;99.90;;;;;;4973788;28;20049;-75
2021/10/21 07:53:11;;;;;;;17.38;2.75;;;10.90;99.90;;;;;;4973211;28;20058;-76
2021/10/21 07:55:38;;;;;;;15.07;2.83;;;10.90;99.90;;;;;;4973938;28;20055;-75
2021/10/21 07:58:05;;;;;;;15.23;2.05;;;10.90;99.90;;;;;;4973416;28;20051;-76
2021/10/21 08:00:32;;;;;;;11.70;1.63;;;11.00;99.90;;;;;;4973016;28;20446;-75
2021/10/21 08:03:00;;;;;;;17.40;2.88;;;11.00;99.90;;;;;;4973670;28;20348;-75
2021/10/21 08:05:27;;;;;;;12.60;1.80;;;11.00;99.90;;;;;;4973647;28;20057;-76
2021/10/21 08:07:54;;;;;;;9.68;1.70;;;;;;;;;;4973728;28;20054;-76
2021/10/21 08:10:20;;;;;;;9.38;1.02;;;11.10;99.90;;;;;;4974265;28;20459;-75
2021/10/21 08:12:47;;;;;;;12.73;2.03;;;11.30;99.90;;;;;;4974049;28;20062;-75
2021/10/21 08:15:14;;;;;;;12.77;1.60;;;11.40;99.90;;;;;;4973156;28;20337;-76
2021/10/21 08:17:43;;;;;;;13.02;1.55;;;11.20;99.90;;;;;;4972751;28;20054;-76
2021/10/21 08:20:12;;;;;;;8.05;1.60;;;11.30;99.90;;;;;;4973727;28;20059;-75
2021/10/21 08:22:47;;;;;;;11.85;1.52;;;11.30;99.90;;;;;;4973623;28;20065;-75
2021/10/21 08:25:15;;;;;;;12.13;1.98;;;11.50;99.90;;;;;;4972729;28;20050;-76
2021/10/21 08:27:42;;;;;;;16.25;2.17;;;11.00;99.90;;;;;;4973967;28;20070;-76
2021/10/21 08:30:09;;;;;;;12.02;1.40;;;11.20;99.90;;;;;;4973951;28;20058;-76
2021/10/21 08:32:35;;;;;;;11.65;1.40;;;11.20;99.90;;;;;;4973953;28;20520;-77
2021/10/21 08:35:02;;;;;;;10.40;1.60;;;11.20;99.90;;;;;;4974007;28;20054;-76
2021/10/21 08:37:28;;;;;;;11.48;1.73;;;11.20;99.90;;;;;;4973897;28;20333;-77
2021/10/21 08:39:55;;;;;;;14.60;2.10;;;11.20;99.90;;;;;;4974108;28;20058;-76
2021/10/21 08:42:22;;;;;;;11.63;1.60;;;11.30;99.90;;;;;;4973670;28;20059;-77
2021/10/21 08:44:48;;;;;;;9.43;1.50;;;11.30;99.90;;;;;;4972966;28;20050;-77
2021/10/21 08:47:18;;;;;;;11.60;2.28;;;11.20;99.90;;;;;;4973842;28;20050;-77
2021/10/21 08:49:46;;;;;;;11.43;1.85;;;11.20;99.90;;;;;;4973022;28;20065;-77
2021/10/21 08:52:16;;;;;;;14.85;1.60;;;11.10;99.90;;;;;;4974361;28;20055;-77
2021/10/21 08:54:43;;;;;;;15.35;3.25;;;11.20;99.90;;;;;;4973856;28;20456;-77
2021/10/21 08:57:11;;;;;;;18.48;2.92;;;11.20;99.90;;;;;;4975204;28;20075;-75
2021/10/21 08:59:39;;;;;;;17.95;2.33;;;11.30;99.90;;;;;;4977912;28;20050;-77
2021/10/21 09:02:13;;;;;;;12.20;2.22;;;11.50;99.90;;;;;;4976058;28;20055;-77
2021/10/21 09:09:45;;;;;;;15.25;1.83;;;11.90;99.90;;;;;;4978279;28;20062;-76
2021/10/21 09:12:13;;;;;;;14.63;2.40;;;11.70;99.90;;;;;;4977724;28;20059;-77
2021/10/21 09:14:42;;;;;;;14.45;2.05;;;11.80;99.90;;;;;;4978028;28;20054;-77
2021/10/21 09:17:10;;;;;;;6.60;1.50;;;11.80;99.90;;;;;;4977633;28;20057;-77
2021/10/21 09:19:39;;;;;;;12.98;1.83;;;11.90;99.90;;;;;;4976314;28;20062;-77
2021/10/21 09:22:07;;;;;;;17.23;1.98;;;12.00;99.90;;;;;;4975996;28;20057;-77
2021/10/21 09:24:41;;;;;;;10.73;2.13;;;11.90;99.90;;;;;;4976273;28;20059;-77
2021/10/21 09:27:10;;;;;;;;;;;11.90;99.90;;;;;;4976366;28;20428;-77
2021/10/21 09:29:38;;;;;;;11.52;1.50;;;11.80;99.90;;;;;;4977951;28;19918;-77
2021/10/21 09:32:07;;;;;;;16.48;2.25;;;11.80;99.90;;;;;;4975825;28;20059;-77
2021/10/21 09:34:48;;;;;;;11.02;1.80;;;12.00;99.90;;;;;;4976114;28;20054;-77
2021/10/21 09:37:16;;;;;;;8.43;1.50;;;12.00;99.90;;;;;;4992208;28;20062;-77
2021/10/21 09:39:45;;;;;;;14.10;2.10;;;12.10;99.90;;;;;;4977510;28;20455;-77
2021/10/21 09:42:12;;;;;;;12.02;1.88;;;12.30;99.90;;;;;;4976597;28;20050;-76
2021/10/21 09:44:38;;;;;;;9.90;1.58;;;12.50;99.90;;;;;;4975629;28;20058;-76
2021/10/21 09:47:16;;;;;;;9.85;1.85;;;12.50;99.90;;;;;;4975767;28;20579;-76
2021/10/21 09:49:47;;;;;;;8.15;1.80;;;12.50;99.90;;;;;;4975766;28;20467;-76
2021/10/21 09:52:15;;;;;;;14.13;2.05;;;12.50;99.90;;;;;;4975441;28;20061;-76
2021/10/21 09:54:42;;;;;;;7.45;2.65;;;12.40;99.90;;;;;;4977135;28;20066;-76
2021/10/21 09:57:13;;;;;;;15.00;2.47;;;12.30;99.90;;;;;;4977873;28;20054;-76
2021/10/21 09:59:40;;;;;;;15.80;3.08;;;12.30;99.90;;;;;;4975670;28;20054;-76
2021/10/21 10:02:20;;;;;;;17.65;2.95;;;12.30;99.90;;;;;;4975866;28;20062;-76
2021/10/21 10:04:54;;;;;;;11.70;1.83;;;12.30;99.90;;;;;;4977218;28;20449;-76
2021/10/21 10:07:22;;;;;;;11.60;2.05;;;12.20;99.90;;;;;;4976697;28;20055;-76
2021/10/21 10:09:48;;;;;;;13.85;2.35;;;12.30;99.90;;;;;;4974784;28;20062;-76
2021/10/21 10:12:16;;;;;;;13.52;1.70;;;12.20;99.90;;;;;;4975458;28;20054;-76
2021/10/21 10:14:46;;;;;;;15.55;1.90;;;12.10;99.90;;;;;;4976741;28;20061;-77
2021/10/21 10:17:13;;;;;;;12.57;2.25;;;12.00;99.90;;;;;;4976544;28;20444;-75
2021/10/21 10:19:48;;;;;;;16.77;3.08;;;12.00;99.90;;;;;;4976898;28;20055;-76
2021/10/21 10:22:31;;;;;;;15.75;2.78;;;11.90;99.90;;;;;;4974756;28;20061;-76
2021/10/21 10:24:58;;;;;;;10.00;2.55;;;11.90;99.90;;;;;;4975046;28;20062;-76
2021/10/21 10:27:30;;;;;;;11.25;1.98;;;11.70;99.90;;;;;;4976586;28;20066;-76
2021/10/21 10:30:00;;;;;;;13.63;2.65;;;12.20;99.90;;;;;;4975607;28;20054;-76
2021/10/21 10:32:34;;;;;;;11.10;3.85;;;11.70;99.90;;;;;;4976666;28;20441;-76
2021/10/21 10:35:29;;;;;;;9.52;1.60;;;11.80;99.90;;;;;;4974898;28;20059;-75
2021/10/21 10:38:01;;;;;;;6.72;1.38;;;11.70;99.90;;;;;;4975570;28;20054;-76
2021/10/21 10:40:40;;;;;;;14.07;2.30;;;11.70;99.90;;;;;;4976301;28;20054;-75
2021/10/21 10:43:06;;;;;;;13.18;1.80;;;11.70;99.90;;;;;;4976449;28;20062;-75
2021/10/21 10:45:46;;;;;;;14.60;1.80;;;11.70;99.90;;;;;;4974518;28;20055;-76
2021/10/21 10:48:13;;;;;;;13.23;2.38;;;11.70;99.90;;;;;;4974661;28;20054;-76
2021/10/21 10:50:43;;;;;;;13.10;1.70;;;11.60;99.90;;;;;;4975046;28;20058;-76
2021/10/21 10:53:11;;;;;;;16.77;2.10;;;11.70;99.90;;;;;;4975112;28;20055;-76
2021/10/21 10:55:39;;;;;;;15.35;2.58;;;11.60;99.90;;;;;;4974256;28;20061;-77
2021/10/21 10:58:14;;;;;;;13.88;2.45;;;11.60;99.90;;;;;;4974173;28;20349;-76
2021/10/21 11:00:49;;;;;;;13.70;2.85;;;11.60;99.90;;;;;;4974620;28;20061;-76
2021/10/21 11:03:30;;;;;;;12.23;2.38;;;11.50;99.90;;;;;;4975054;28;20053;-76
2021/10/21 11:06:07;;;;;;;12.40;2.25;;;11.50;99.90;;;;;;4973328;28;20047;-77
2021/10/21 11:09:04;;;;;;;19.98;2.28;;;11.40;99.90;;;;;;4974859;28;20051;-75
2021/10/21 11:11:48;;;;;;;15.95;2.25;;;11.40;99.90;;;;;;4975454;28;20051;-76
2021/10/21 11:14:16;;;;;;;21.27;3.22;;;11.60;99.90;;;;;;4975513;28;20061;-76
2021/10/21 11:16:45;;;;;;;13.13;2.95;;;;;;;;;;4976070;28;20314;-76
2021/10/21 11:19:32;;;;;;;13.45;2.00;;;11.40;99.90;;;;;;4975875;28;20051;-76
2021/10/21 11:21:59;;;;;;;12.60;2.15;;;11.50;99.90;;;;;;4974794;28;20058;-76
2021/10/21 11:24:49;;;;;;;11.68;2.25;;;11.40;99.90;;;;;;4974373;28;20057;-77
2021/10/21 11:27:29;;;;;;;12.43;1.92;;;11.40;99.90;;;;;;4974064;28;20050;-76
2021/10/21 11:30:10;;;;;;;10.80;2.00;;;11.30;99.90;;;;;;4975855;28;20058;-76
2021/10/21 11:32:39;;;;;;;6.70;1.80;;;11.10;99.90;;;;;;4974903;28;20636;-76
2021/10/21 11:35:07;;;;;;;16.63;1.90;;;11.00;99.90;;;;;;4975363;28;20085;-76
2021/10/21 11:37:39;;;;;;;10.02;1.75;;;11.00;99.90;;;;;;4974104;28;20046;-76
2021/10/21 11:40:08;;;;;;;9.43;2.00;;;10.80;99.90;;;;;;4982249;28;20348;-79
2021/10/21 11:42:34;;;;;;;8.35;1.33;;;10.70;99.90;;;;;;4983335;28;20047;-76
2021/10/21 11:45:07;;;;;;;11.68;2.15;;;10.80;99.90;;;;;;4982371;28;20444;-76
2021/10/21 11:47:35;;;;;;;9.55;1.30;;;10.80;99.90;;;;;;4984945;28;20063;-76
2021/10/21 11:50:04;;;;;;;10.13;2.25;;;10.80;99.90;;;;;;4982310;28;20063;-75
2021/10/21 11:52:38;;;;;;;8.93;1.80;;;10.80;99.90;;;;;;4983475;28;20050;-75
2021/10/21 11:55:06;;;;;;;9.05;1.42;;;10.80;99.90;;;;;;4983472;28;20051;-76
2021/10/21 11:57:33;;;;;;;7.90;1.25;;;10.70;99.90;;;;;;4984470;28;20341;-75
2021/10/21 12:00:14;;;;;;;10.93;1.52;;;10.60;99.90;;;;;;4980577;28;20341;-74
2021/10/21 12:02:41;;;;;;;10.10;1.77;;;10.60;99.90;;;;;;4982454;28;20050;-74
2021/10/21 12:05:08;;;;;;;6.65;1.55;;;10.40;99.90;;;;;;4993174;28;20050;-74
2021/10/21 12:07:34;;;;;;;9.52;1.88;;;10.30;99.90;;;;;;4993510;28;20057;-75
2021/10/21 12:10:00;;;;;;;9.10;1.63;;;10.30;99.90;;;;;;4992164;28;20050;-76
2021/10/21 12:12:38;;;;;;;5.07;1.05;;;10.40;99.90;;;;;;4992506;28;20050;-76
2021/10/21 12:15:08;;;;;;;9.85;1.52;;;10.30;99.90;;;;;;4993180;28;20626;-75
2021/10/21 12:17:35;;;;;;;8.65;1.58;;;10.30;99.90;;;;;;4993238;28;20441;-74
2021/10/21 12:20:02;;;;;;;12.07;1.92;;;10.10;99.90;;;;;;4991943;28;20344;-75
2021/10/21 12:22:30;;;;;;;8.70;1.50;;;10.10;99.90;;;;;;4993680;28;20057;-75
2021/10/21 12:24:57;;;;;;;6.50;1.63;;;10.10;99.90;;;;;;4976498;28;20063;-75
2021/10/21 12:27:25;;;;;;;12.38;2.40;;;10.10;99.90;;;;;;4992075;28;20463;-74
2021/10/21 12:30:00;;;;;;;10.05;1.80;;;;;;;;;;4992232;28;20062;-75
2021/10/21 12:32:27;;;;;;;11.43;2.25;;;10.30;99.90;;;;;;4993478;28;20050;-73
2021/10/21 12:35:04;;;;;;;9.85;2.17;;;10.40;99.90;;;;;;4997135;28;20340;-74
2021/10/21 12:37:40;;;;;;;7.25;1.25;;;10.40;99.90;;;;;;4996620;28;20046;-74
2021/10/21 12:40:23;;;;;;;13.30;1.67;;;10.50;99.90;;;;;;4997445;28;20385;-74
2021/10/21 12:42:50;;;;;;;6.80;1.30;;;10.50;99.90;;;;;;4997596;28;20433;-73
2021/10/21 12:45:21;;;;;;;8.52;1.67;;;10.40;99.90;;;;;;4997176;28;20182;-74
2021/10/21 12:47:48;;;;;;;7.47;2.05;;;10.40;99.90;;;;;;4996180;28;20050;-75
2021/10/21 12:50:16;;;;;;;13.52;2.00;;;;;;;;;;4996736;28;20069;-76
2021/10/21 12:52:47;;;;;;;7.57;1.75;;;10.50;99.90;;;;;;4995778;28;20429;-75